sensor_id;sensor_type;location;lat;lon;timestamp;P1;durP1;ratioP1;P2;durP2;ratioP2
51556;SDS011;38766;53.194;5.532;2023-04-15T00:01:14;10.90;;;5.25;;
51556;SDS011;38766;53.194;5.532;2023-04-15T00:03:43;9.82;;;5.38;;
51556;SDS011;38766;53.194;5.532;2023-04-15T00:06:09;9.80;;;4.82;;
51556;SDS011;38766;53.194;5.532;2023-04-15T00:08:34;13.43;;;5.25;;
51556;SDS011;38766;53.194;5.532;2023-04-15T00:11:00;10.70;;;5.30;;
51556;SDS011;38766;53.194;5.532;2023-04-15T00:13:29;9.57;;;5.25;;
51556;SDS011;38766;53.194;5.532;2023-04-15T00:15:58;13.63;;;5.60;;
51556;SDS011;38766;53.194;5.532;2023-04-15T00:18:24;11.75;;;4.95;;
51556;SDS011;38766;53.194;5.532;2023-04-15T00:20:50;13.18;;;6.45;;
51556;SDS011;38766;53.194;5.532;2023-04-15T00:23:16;9.82;;;4.88;;
51556;SDS011;38766;53.194;5.532;2023-04-15T00:25:42;8.73;;;5.50;;
51556;SDS011;38766;53.194;5.532;2023-04-15T00:28:08;9.63;;;5.20;;
51556;SDS011;38766;53.194;5.532;2023-04-15T00:30:34;14.07;;;5.85;;
51556;SDS011;38766;53.194;5.532;2023-04-15T00:33:00;9.85;;;5.05;;
51556;SDS011;38766;53.194;5.532;2023-04-15T00:35:28;10.95;;;5.28;;
51556;SDS011;38766;53.194;5.532;2023-04-15T00:37:56;10.52;;;5.10;;
51556;SDS011;38766;53.194;5.532;2023-04-15T00:40:23;8.13;;;4.72;;
51556;SDS011;38766;53.194;5.532;2023-04-15T00:42:49;9.48;;;4.75;;
51556;SDS011;38766;53.194;5.532;2023-04-15T00:45:14;11.10;;;5.10;;
51556;SDS011;38766;53.194;5.532;2023-04-15T00:47:40;11.25;;;5.00;;
51556;SDS011;38766;53.194;5.532;2023-04-15T00:50:08;12.82;;;5.45;;
51556;SDS011;38766;53.194;5.532;2023-04-15T00:52:34;9.82;;;5.05;;
51556;SDS011;38766;53.194;5.532;2023-04-15T00:55:01;10.07;;;5.05;;
51556;SDS011;38766;53.194;5.532;2023-04-15T00:57:28;10.90;;;5.35;;
51556;SDS011;38766;53.194;5.532;2023-04-15T00:59:54;11.15;;;5.80;;
51556;SDS011;38766;53.194;5.532;2023-04-15T01:02:21;11.55;;;5.90;;
51556;SDS011;38766;53.194;5.532;2023-04-15T01:04:47;13.65;;;5.35;;
51556;SDS011;38766;53.194;5.532;2023-04-15T01:07:13;8.82;;;4.95;;
51556;SDS011;38766;53.194;5.532;2023-04-15T01:09:40;12.50;;;5.72;;
51556;SDS011;38766;53.194;5.532;2023-04-15T01:12:06;9.65;;;5.05;;
51556;SDS011;38766;53.194;5.532;2023-04-15T01:14:34;15.30;;;5.47;;
51556;SDS011;38766;53.194;5.532;2023-04-15T01:17:00;7.53;;;5.47;;
51556;SDS011;38766;53.194;5.532;2023-04-15T01:19:26;9.52;;;6.13;;
51556;SDS011;38766;53.194;5.532;2023-04-15T01:21:52;12.93;;;5.80;;
51556;SDS011;38766;53.194;5.532;2023-04-15T01:24:19;12.32;;;6.18;;
51556;SDS011;38766;53.194;5.532;2023-04-15T01:26:45;10.75;;;5.57;;
51556;SDS011;38766;53.194;5.532;2023-04-15T01:29:11;10.15;;;5.93;;
51556;SDS011;38766;53.194;5.532;2023-04-15T01:31:37;9.55;;;5.80;;
51556;SDS011;38766;53.194;5.532;2023-04-15T01:34:03;15.25;;;6.00;;
51556;SDS011;38766;53.194;5.532;2023-04-15T01:36:29;12.82;;;6.03;;
51556;SDS011;38766;53.194;5.532;2023-04-15T01:38:55;15.50;;;6.75;;
51556;SDS011;38766;53.194;5.532;2023-04-15T01:41:30;10.10;;;5.82;;
51556;SDS011;38766;53.194;5.532;2023-04-15T01:43:55;12.10;;;6.63;;
51556;SDS011;38766;53.194;5.532;2023-04-15T01:46:21;10.68;;;7.38;;
51556;SDS011;38766;53.194;5.532;2023-04-15T01:48:47;14.20;;;6.50;;
51556;SDS011;38766;53.194;5.532;2023-04-15T01:51:13;10.65;;;6.70;;
51556;SDS011;38766;53.194;5.532;2023-04-15T01:53:38;13.43;;;6.90;;
51556;SDS011;38766;53.194;5.532;2023-04-15T01:56:04;10.55;;;6.93;;
51556;SDS011;38766;53.194;5.532;2023-04-15T01:58:31;11.00;;;6.72;;
51556;SDS011;38766;53.194;5.532;2023-04-15T02:00:57;13.50;;;7.63;;
51556;SDS011;38766;53.194;5.532;2023-04-15T02:03:23;15.80;;;8.18;;
51556;SDS011;38766;53.194;5.532;2023-04-15T02:05:49;14.55;;;8.02;;
51556;SDS011;38766;53.194;5.532;2023-04-15T02:08:15;12.25;;;7.70;;
51556;SDS011;38766;53.194;5.532;2023-04-15T02:10:41;13.30;;;7.57;;
51556;SDS011;38766;53.194;5.532;2023-04-15T02:13:07;14.05;;;7.63;;
51556;SDS011;38766;53.194;5.532;2023-04-15T02:15:33;12.48;;;7.88;;
51556;SDS011;38766;53.194;5.532;2023-04-15T02:17:59;10.82;;;7.70;;
51556;SDS011;38766;53.194;5.532;2023-04-15T02:20:25;14.48;;;8.63;;
51556;SDS011;38766;53.194;5.532;2023-04-15T02:22:51;14.85;;;8.10;;
51556;SDS011;38766;53.194;5.532;2023-04-15T02:25:17;11.30;;;8.88;;
51556;SDS011;38766;53.194;5.532;2023-04-15T02:27:44;13.73;;;8.45;;
51556;SDS011;38766;53.194;5.532;2023-04-15T02:30:10;14.68;;;8.40;;
51556;SDS011;38766;53.194;5.532;2023-04-15T02:32:35;20.48;;;9.35;;
51556;SDS011;38766;53.194;5.532;2023-04-15T02:35:03;14.43;;;8.55;;
51556;SDS011;38766;53.194;5.532;2023-04-15T02:37:34;15.57;;;9.30;;
51556;SDS011;38766;53.194;5.532;2023-04-15T02:40:05;15.32;;;8.85;;
51556;SDS011;38766;53.194;5.532;2023-04-15T02:42:33;14.77;;;9.02;;
51556;SDS011;38766;53.194;5.532;2023-04-15T02:44:59;14.43;;;8.73;;
51556;SDS011;38766;53.194;5.532;2023-04-15T02:47:24;13.75;;;9.18;;
51556;SDS011;38766;53.194;5.532;2023-04-15T02:49:50;15.75;;;9.35;;
51556;SDS011;38766;53.194;5.532;2023-04-15T02:52:16;18.67;;;9.68;;
51556;SDS011;38766;53.194;5.532;2023-04-15T02:54:42;18.60;;;9.88;;
51556;SDS011;38766;53.194;5.532;2023-04-15T02:57:08;13.90;;;9.00;;
51556;SDS011;38766;53.194;5.532;2023-04-15T02:59:35;16.73;;;10.38;;
51556;SDS011;38766;53.194;5.532;2023-04-15T03:02:00;15.70;;;9.93;;
51556;SDS011;38766;53.194;5.532;2023-04-15T03:04:26;15.13;;;9.25;;
51556;SDS011;38766;53.194;5.532;2023-04-15T03:06:54;15.20;;;9.25;;
51556;SDS011;38766;53.194;5.532;2023-04-15T03:09:20;16.02;;;9.48;;
51556;SDS011;38766;53.194;5.532;2023-04-15T03:11:46;18.58;;;9.75;;
51556;SDS011;38766;53.194;5.532;2023-04-15T03:14:12;16.65;;;9.98;;
51556;SDS011;38766;53.194;5.532;2023-04-15T03:16:37;14.98;;;9.57;;
51556;SDS011;38766;53.194;5.532;2023-04-15T03:19:03;13.30;;;9.60;;
51556;SDS011;38766;53.194;5.532;2023-04-15T03:21:29;15.27;;;9.45;;
51556;SDS011;38766;53.194;5.532;2023-04-15T03:23:55;15.88;;;9.52;;
51556;SDS011;38766;53.194;5.532;2023-04-15T03:26:30;13.15;;;9.48;;
51556;SDS011;38766;53.194;5.532;2023-04-15T03:28:56;13.00;;;8.93;;
51556;SDS011;38766;53.194;5.532;2023-04-15T03:31:22;15.82;;;10.15;;
51556;SDS011;38766;53.194;5.532;2023-04-15T03:33:48;13.82;;;9.40;;
51556;SDS011;38766;53.194;5.532;2023-04-15T03:36:14;11.95;;;9.15;;
51556;SDS011;38766;53.194;5.532;2023-04-15T03:38:41;16.05;;;9.80;;
51556;SDS011;38766;53.194;5.532;2023-04-15T03:41:07;17.52;;;10.43;;
51556;SDS011;38766;53.194;5.532;2023-04-15T03:43:33;15.00;;;10.25;;
51556;SDS011;38766;53.194;5.532;2023-04-15T03:45:59;16.33;;;9.73;;
51556;SDS011;38766;53.194;5.532;2023-04-15T03:48:25;14.80;;;9.50;;
51556;SDS011;38766;53.194;5.532;2023-04-15T03:50:51;14.95;;;9.85;;
51556;SDS011;38766;53.194;5.532;2023-04-15T03:53:17;12.85;;;9.25;;
51556;SDS011;38766;53.194;5.532;2023-04-15T03:55:42;14.52;;;9.35;;
51556;SDS011;38766;53.194;5.532;2023-04-15T03:58:08;17.83;;;10.00;;
51556;SDS011;38766;53.194;5.532;2023-04-15T04:00:36;15.07;;;10.05;;
51556;SDS011;38766;53.194;5.532;2023-04-15T04:03:02;16.65;;;10.48;;
51556;SDS011;38766;53.194;5.532;2023-04-15T04:05:28;15.88;;;10.52;;
51556;SDS011;38766;53.194;5.532;2023-04-15T04:07:54;14.43;;;10.02;;
51556;SDS011;38766;53.194;5.532;2023-04-15T04:10:20;15.40;;;10.68;;
51556;SDS011;38766;53.194;5.532;2023-04-15T04:12:46;15.63;;;10.10;;
51556;SDS011;38766;53.194;5.532;2023-04-15T04:15:11;15.93;;;10.50;;
51556;SDS011;38766;53.194;5.532;2023-04-15T04:17:37;17.45;;;10.30;;
51556;SDS011;38766;53.194;5.532;2023-04-15T04:20:02;19.35;;;10.82;;
51556;SDS011;38766;53.194;5.532;2023-04-15T04:22:29;14.00;;;9.95;;
51556;SDS011;38766;53.194;5.532;2023-04-15T04:24:55;15.43;;;10.50;;
51556;SDS011;38766;53.194;5.532;2023-04-15T04:27:23;17.23;;;10.35;;
51556;SDS011;38766;53.194;5.532;2023-04-15T04:29:49;14.65;;;10.70;;
51556;SDS011;38766;53.194;5.532;2023-04-15T04:32:15;18.05;;;10.45;;
51556;SDS011;38766;53.194;5.532;2023-04-15T04:34:40;17.95;;;10.57;;
51556;SDS011;38766;53.194;5.532;2023-04-15T04:37:06;14.38;;;9.80;;
51556;SDS011;38766;53.194;5.532;2023-04-15T04:39:32;16.40;;;10.65;;
51556;SDS011;38766;53.194;5.532;2023-04-15T04:41:57;13.95;;;10.00;;
51556;SDS011;38766;53.194;5.532;2023-04-15T04:44:23;14.40;;;10.07;;
51556;SDS011;38766;53.194;5.532;2023-04-15T04:46:48;15.38;;;10.68;;
51556;SDS011;38766;53.194;5.532;2023-04-15T04:49:14;16.40;;;9.85;;
51556;SDS011;38766;53.194;5.532;2023-04-15T04:51:40;17.27;;;10.63;;
51556;SDS011;38766;53.194;5.532;2023-04-15T04:54:06;16.27;;;10.30;;
51556;SDS011;38766;53.194;5.532;2023-04-15T04:56:32;18.00;;;11.23;;
51556;SDS011;38766;53.194;5.532;2023-04-15T04:58:58;17.17;;;11.73;;
51556;SDS011;38766;53.194;5.532;2023-04-15T05:01:24;15.38;;;10.60;;
51556;SDS011;38766;53.194;5.532;2023-04-15T05:03:51;15.55;;;10.18;;
51556;SDS011;38766;53.194;5.532;2023-04-15T05:06:17;17.00;;;11.25;;
51556;SDS011;38766;53.194;5.532;2023-04-15T05:08:42;16.38;;;10.95;;
51556;SDS011;38766;53.194;5.532;2023-04-15T05:11:08;15.13;;;10.65;;
51556;SDS011;38766;53.194;5.532;2023-04-15T05:13:34;15.77;;;10.13;;
51556;SDS011;38766;53.194;5.532;2023-04-15T05:16:02;16.80;;;10.77;;
51556;SDS011;38766;53.194;5.532;2023-04-15T05:18:29;16.48;;;10.65;;
51556;SDS011;38766;53.194;5.532;2023-04-15T05:20:55;16.10;;;10.05;;
51556;SDS011;38766;53.194;5.532;2023-04-15T05:23:20;16.60;;;11.23;;
51556;SDS011;38766;53.194;5.532;2023-04-15T05:25:46;15.88;;;10.50;;
51556;SDS011;38766;53.194;5.532;2023-04-15T05:28:12;16.17;;;11.35;;
51556;SDS011;38766;53.194;5.532;2023-04-15T05:30:37;16.85;;;10.57;;
51556;SDS011;38766;53.194;5.532;2023-04-15T05:33:03;15.20;;;10.75;;
51556;SDS011;38766;53.194;5.532;2023-04-15T05:35:29;14.05;;;10.38;;
51556;SDS011;38766;53.194;5.532;2023-04-15T05:37:55;17.33;;;11.65;;
51556;SDS011;38766;53.194;5.532;2023-04-15T05:40:21;17.92;;;11.18;;
51556;SDS011;38766;53.194;5.532;2023-04-15T05:42:46;15.98;;;11.38;;
51556;SDS011;38766;53.194;5.532;2023-04-15T05:45:12;16.70;;;11.20;;
51556;SDS011;38766;53.194;5.532;2023-04-15T05:47:38;22.92;;;12.32;;
51556;SDS011;38766;53.194;5.532;2023-04-15T05:50:04;18.30;;;11.65;;
51556;SDS011;38766;53.194;5.532;2023-04-15T05:52:30;18.67;;;11.90;;
51556;SDS011;38766;53.194;5.532;2023-04-15T05:54:56;15.18;;;10.55;;
51556;SDS011;38766;53.194;5.532;2023-04-15T05:57:22;17.40;;;10.90;;
51556;SDS011;38766;53.194;5.532;2023-04-15T05:59:47;14.45;;;9.35;;
51556;SDS011;38766;53.194;5.532;2023-04-15T06:02:15;19.63;;;9.98;;
51556;SDS011;38766;53.194;5.532;2023-04-15T06:04:41;15.43;;;10.43;;
51556;SDS011;38766;53.194;5.532;2023-04-15T06:07:07;13.38;;;9.20;;
51556;SDS011;38766;53.194;5.532;2023-04-15T06:09:33;15.85;;;9.13;;
51556;SDS011;38766;53.194;5.532;2023-04-15T06:11:59;13.07;;;7.88;;
51556;SDS011;38766;53.194;5.532;2023-04-15T06:14:26;11.25;;;8.50;;
51556;SDS011;38766;53.194;5.532;2023-04-15T06:16:51;11.95;;;7.80;;
51556;SDS011;38766;53.194;5.532;2023-04-15T06:19:17;11.70;;;8.10;;
51556;SDS011;38766;53.194;5.532;2023-04-15T06:21:43;9.55;;;6.55;;
51556;SDS011;38766;53.194;5.532;2023-04-15T06:24:10;8.95;;;6.28;;
51556;SDS011;38766;53.194;5.532;2023-04-15T06:26:36;10.02;;;6.15;;
51556;SDS011;38766;53.194;5.532;2023-04-15T06:29:01;10.95;;;6.18;;
51556;SDS011;38766;53.194;5.532;2023-04-15T06:31:27;8.32;;;5.78;;
51556;SDS011;38766;53.194;5.532;2023-04-15T06:33:53;9.10;;;6.60;;
51556;SDS011;38766;53.194;5.532;2023-04-15T06:36:18;12.68;;;6.65;;
51556;SDS011;38766;53.194;5.532;2023-04-15T06:38:44;9.20;;;5.88;;
51556;SDS011;38766;53.194;5.532;2023-04-15T06:41:10;9.15;;;5.70;;
51556;SDS011;38766;53.194;5.532;2023-04-15T06:43:36;7.65;;;5.97;;
51556;SDS011;38766;53.194;5.532;2023-04-15T06:46:02;11.43;;;6.15;;
51556;SDS011;38766;53.194;5.532;2023-04-15T06:48:28;9.40;;;7.15;;
51556;SDS011;38766;53.194;5.532;2023-04-15T06:50:53;13.40;;;6.97;;
51556;SDS011;38766;53.194;5.532;2023-04-15T06:53:19;11.38;;;7.45;;
51556;SDS011;38766;53.194;5.532;2023-04-15T06:55:46;12.77;;;7.47;;
51556;SDS011;38766;53.194;5.532;2023-04-15T06:58:11;11.48;;;7.55;;
51556;SDS011;38766;53.194;5.532;2023-04-15T07:00:37;11.57;;;8.32;;
51556;SDS011;38766;53.194;5.532;2023-04-15T07:03:03;13.60;;;8.13;;
51556;SDS011;38766;53.194;5.532;2023-04-15T07:05:29;13.85;;;9.20;;
51556;SDS011;38766;53.194;5.532;2023-04-15T07:07:56;13.50;;;8.70;;
51556;SDS011;38766;53.194;5.532;2023-04-15T07:10:22;16.92;;;9.63;;
51556;SDS011;38766;53.194;5.532;2023-04-15T07:12:48;15.05;;;9.75;;
51556;SDS011;38766;53.194;5.532;2023-04-15T07:15:14;15.07;;;9.65;;
51556;SDS011;38766;53.194;5.532;2023-04-15T07:17:40;13.32;;;9.50;;
51556;SDS011;38766;53.194;5.532;2023-04-15T07:20:07;17.08;;;9.23;;
51556;SDS011;38766;53.194;5.532;2023-04-15T07:22:33;15.85;;;10.55;;
51556;SDS011;38766;53.194;5.532;2023-04-15T07:24:59;14.63;;;10.60;;
51556;SDS011;38766;53.194;5.532;2023-04-15T07:27:25;14.95;;;10.60;;
51556;SDS011;38766;53.194;5.532;2023-04-15T07:29:51;15.85;;;9.63;;
51556;SDS011;38766;53.194;5.532;2023-04-15T07:32:17;15.65;;;10.88;;
51556;SDS011;38766;53.194;5.532;2023-04-15T07:34:43;16.30;;;10.95;;
51556;SDS011;38766;53.194;5.532;2023-04-15T07:37:09;13.85;;;10.15;;
51556;SDS011;38766;53.194;5.532;2023-04-15T07:39:35;14.55;;;10.32;;
51556;SDS011;38766;53.194;5.532;2023-04-15T07:42:01;16.35;;;9.90;;
51556;SDS011;38766;53.194;5.532;2023-04-15T07:44:28;14.38;;;10.25;;
51556;SDS011;38766;53.194;5.532;2023-04-15T07:46:54;15.68;;;10.15;;
51556;SDS011;38766;53.194;5.532;2023-04-15T07:49:20;15.45;;;9.35;;
51556;SDS011;38766;53.194;5.532;2023-04-15T07:51:46;14.98;;;9.30;;
51556;SDS011;38766;53.194;5.532;2023-04-15T07:54:13;15.50;;;9.30;;
51556;SDS011;38766;53.194;5.532;2023-04-15T07:56:39;16.52;;;8.57;;
51556;SDS011;38766;53.194;5.532;2023-04-15T07:59:05;14.43;;;9.73;;
51556;SDS011;38766;53.194;5.532;2023-04-15T08:01:31;14.15;;;8.20;;
51556;SDS011;38766;53.194;5.532;2023-04-15T08:03:57;16.45;;;8.60;;
51556;SDS011;38766;53.194;5.532;2023-04-15T08:06:23;14.15;;;7.60;;
51556;SDS011;38766;53.194;5.532;2023-04-15T08:08:49;13.07;;;7.18;;
51556;SDS011;38766;53.194;5.532;2023-04-15T08:11:15;10.02;;;6.68;;
51556;SDS011;38766;53.194;5.532;2023-04-15T08:13:41;10.40;;;6.22;;
51556;SDS011;38766;53.194;5.532;2023-04-15T08:16:15;10.65;;;6.25;;
51556;SDS011;38766;53.194;5.532;2023-04-15T08:18:43;14.32;;;6.65;;
51556;SDS011;38766;53.194;5.532;2023-04-15T08:21:09;14.05;;;7.13;;
51556;SDS011;38766;53.194;5.532;2023-04-15T08:23:35;11.70;;;6.95;;
51556;SDS011;38766;53.194;5.532;2023-04-15T08:26:01;12.68;;;7.05;;
51556;SDS011;38766;53.194;5.532;2023-04-15T08:28:27;10.02;;;6.13;;
51556;SDS011;38766;53.194;5.532;2023-04-15T08:30:53;10.95;;;6.40;;
51556;SDS011;38766;53.194;5.532;2023-04-15T08:33:19;16.13;;;6.72;;
51556;SDS011;38766;53.194;5.532;2023-04-15T08:35:45;11.27;;;6.47;;
51556;SDS011;38766;53.194;5.532;2023-04-15T08:38:11;8.57;;;5.93;;
51556;SDS011;38766;53.194;5.532;2023-04-15T08:40:40;9.98;;;5.88;;
51556;SDS011;38766;53.194;5.532;2023-04-15T08:43:08;10.85;;;5.57;;
51556;SDS011;38766;53.194;5.532;2023-04-15T08:45:37;12.40;;;6.22;;
51556;SDS011;38766;53.194;5.532;2023-04-15T08:48:04;10.65;;;5.28;;
51556;SDS011;38766;53.194;5.532;2023-04-15T08:50:31;9.70;;;4.82;;
51556;SDS011;38766;53.194;5.532;2023-04-15T08:52:57;4.85;;;3.88;;
51556;SDS011;38766;53.194;5.532;2023-04-15T08:55:28;5.65;;;3.50;;
51556;SDS011;38766;53.194;5.532;2023-04-15T08:57:58;6.45;;;4.00;;
51556;SDS011;38766;53.194;5.532;2023-04-15T09:00:25;7.97;;;4.30;;
51556;SDS011;38766;53.194;5.532;2023-04-15T09:02:51;7.60;;;4.25;;
51556;SDS011;38766;53.194;5.532;2023-04-15T09:05:18;7.07;;;5.20;;
51556;SDS011;38766;53.194;5.532;2023-04-15T09:07:45;7.57;;;4.78;;
51556;SDS011;38766;53.194;5.532;2023-04-15T09:10:11;7.22;;;4.95;;
51556;SDS011;38766;53.194;5.532;2023-04-15T09:12:37;10.63;;;5.05;;
51556;SDS011;38766;53.194;5.532;2023-04-15T09:15:02;9.00;;;5.25;;
51556;SDS011;38766;53.194;5.532;2023-04-15T09:17:29;7.68;;;4.80;;
51556;SDS011;38766;53.194;5.532;2023-04-15T09:20:07;9.77;;;5.53;;
51556;SDS011;38766;53.194;5.532;2023-04-15T09:22:38;8.38;;;5.40;;
51556;SDS011;38766;53.194;5.532;2023-04-15T09:28:13;8.75;;;4.90;;
51556;SDS011;38766;53.194;5.532;2023-04-15T09:30:32;9.93;;;4.70;;
51556;SDS011;38766;53.194;5.532;2023-04-15T09:32:59;8.68;;;4.82;;
51556;SDS011;38766;53.194;5.532;2023-04-15T09:35:26;7.88;;;4.22;;
51556;SDS011;38766;53.194;5.532;2023-04-15T09:37:53;10.45;;;4.30;;
51556;SDS011;38766;53.194;5.532;2023-04-15T09:40:33;8.35;;;4.32;;
51556;SDS011;38766;53.194;5.532;2023-04-15T09:43:00;7.95;;;4.43;;
51556;SDS011;38766;53.194;5.532;2023-04-15T09:45:27;7.32;;;4.00;;
51556;SDS011;38766;53.194;5.532;2023-04-15T09:47:53;8.20;;;4.47;;
51556;SDS011;38766;53.194;5.532;2023-04-15T09:50:19;8.60;;;4.70;;
51556;SDS011;38766;53.194;5.532;2023-04-15T09:52:45;7.30;;;4.40;;
51556;SDS011;38766;53.194;5.532;2023-04-15T09:55:12;7.97;;;4.32;;
51556;SDS011;38766;53.194;5.532;2023-04-15T09:57:39;6.57;;;4.07;;
51556;SDS011;38766;53.194;5.532;2023-04-15T10:00:14;7.45;;;4.47;;
51556;SDS011;38766;53.194;5.532;2023-04-15T10:02:40;6.80;;;3.83;;
51556;SDS011;38766;53.194;5.532;2023-04-15T10:05:06;7.03;;;4.43;;
51556;SDS011;38766;53.194;5.532;2023-04-15T10:07:37;9.15;;;4.75;;
51556;SDS011;38766;53.194;5.532;2023-04-15T10:10:05;5.72;;;3.58;;
51556;SDS011;38766;53.194;5.532;2023-04-15T10:12:31;7.75;;;3.65;;
51556;SDS011;38766;53.194;5.532;2023-04-15T10:14:58;6.78;;;4.38;;
51556;SDS011;38766;53.194;5.532;2023-04-15T10:17:29;6.68;;;3.83;;
51556;SDS011;38766;53.194;5.532;2023-04-15T10:20:01;15.80;;;4.55;;
51556;SDS011;38766;53.194;5.532;2023-04-15T10:22:29;5.35;;;2.95;;
51556;SDS011;38766;53.194;5.532;2023-04-15T10:24:55;6.80;;;3.13;;
51556;SDS011;38766;53.194;5.532;2023-04-15T10:27:22;7.78;;;3.05;;
51556;SDS011;38766;53.194;5.532;2023-04-15T10:29:49;3.60;;;2.63;;
51556;SDS011;38766;53.194;5.532;2023-04-15T10:32:16;6.70;;;2.67;;
51556;SDS011;38766;53.194;5.532;2023-04-15T10:34:44;6.38;;;2.63;;
51556;SDS011;38766;53.194;5.532;2023-04-15T10:37:11;3.42;;;2.42;;
51556;SDS011;38766;53.194;5.532;2023-04-15T10:39:43;5.35;;;2.53;;
51556;SDS011;38766;53.194;5.532;2023-04-15T10:42:10;3.33;;;2.45;;
51556;SDS011;38766;53.194;5.532;2023-04-15T10:44:41;5.20;;;2.78;;
51556;SDS011;38766;53.194;5.532;2023-04-15T10:47:09;5.20;;;2.17;;
51556;SDS011;38766;53.194;5.532;2023-04-15T10:49:44;6.05;;;2.58;;
51556;SDS011;38766;53.194;5.532;2023-04-15T10:52:15;5.18;;;2.65;;
51556;SDS011;38766;53.194;5.532;2023-04-15T10:54:42;6.85;;;2.80;;
51556;SDS011;38766;53.194;5.532;2023-04-15T10:57:13;5.63;;;2.75;;
51556;SDS011;38766;53.194;5.532;2023-04-15T11:02:50;5.75;;;3.00;;
51556;SDS011;38766;53.194;5.532;2023-04-15T11:05:21;5.35;;;2.72;;
51556;SDS011;38766;53.194;5.532;2023-04-15T11:08:05;4.70;;;2.83;;
51556;SDS011;38766;53.194;5.532;2023-04-15T11:13:02;3.63;;;2.03;;
51556;SDS011;38766;53.194;5.532;2023-04-15T11:15:39;3.80;;;2.10;;
51556;SDS011;38766;53.194;5.532;2023-04-15T11:18:12;4.15;;;2.40;;
51556;SDS011;38766;53.194;5.532;2023-04-15T11:20:53;7.97;;;2.63;;
51556;SDS011;38766;53.194;5.532;2023-04-15T11:26:08;6.03;;;1.92;;
51556;SDS011;38766;53.194;5.532;2023-04-15T11:28:36;3.42;;;2.03;;
51556;SDS011;38766;53.194;5.532;2023-04-15T11:31:08;3.25;;;2.35;;
51556;SDS011;38766;53.194;5.532;2023-04-15T11:33:36;5.13;;;1.90;;
51556;SDS011;38766;53.194;5.532;2023-04-15T11:36:03;2.95;;;1.70;;
51556;SDS011;38766;53.194;5.532;2023-04-15T11:38:29;4.85;;;2.20;;
51556;SDS011;38766;53.194;5.532;2023-04-15T11:40:55;3.55;;;2.40;;
51556;SDS011;38766;53.194;5.532;2023-04-15T11:43:21;3.60;;;2.10;;
51556;SDS011;38766;53.194;5.532;2023-04-15T11:45:57;5.35;;;2.13;;
51556;SDS011;38766;53.194;5.532;2023-04-15T11:48:31;3.50;;;1.70;;
51556;SDS011;38766;53.194;5.532;2023-04-15T11:50:59;5.00;;;2.00;;
51556;SDS011;38766;53.194;5.532;2023-04-15T11:53:48;4.13;;;2.22;;
51556;SDS011;38766;53.194;5.532;2023-04-15T11:56:17;5.30;;;2.10;;
51556;SDS011;38766;53.194;5.532;2023-04-15T11:58:47;7.90;;;2.53;;
51556;SDS011;38766;53.194;5.532;2023-04-15T12:01:15;5.75;;;2.40;;
51556;SDS011;38766;53.194;5.532;2023-04-15T12:03:42;4.82;;;2.47;;
51556;SDS011;38766;53.194;5.532;2023-04-15T12:14:18;5.43;;;1.95;;
51556;SDS011;38766;53.194;5.532;2023-04-15T12:17:01;5.03;;;1.65;;
51556;SDS011;38766;53.194;5.532;2023-04-15T12:19:35;3.58;;;1.80;;
51556;SDS011;38766;53.194;5.532;2023-04-15T12:22:03;8.10;;;2.33;;
51556;SDS011;38766;53.194;5.532;2023-04-15T12:24:34;8.90;;;2.25;;
51556;SDS011;38766;53.194;5.532;2023-04-15T12:29:34;4.40;;;1.70;;
51556;SDS011;38766;53.194;5.532;2023-04-15T12:32:08;4.18;;;1.70;;
51556;SDS011;38766;53.194;5.532;2023-04-15T12:34:46;5.03;;;1.60;;
51556;SDS011;38766;53.194;5.532;2023-04-15T12:37:17;5.43;;;1.50;;
51556;SDS011;38766;53.194;5.532;2023-04-15T12:39:44;7.70;;;1.63;;
51556;SDS011;38766;53.194;5.532;2023-04-15T12:42:13;4.40;;;1.65;;
51556;SDS011;38766;53.194;5.532;2023-04-15T12:44:39;8.13;;;2.38;;
51556;SDS011;38766;53.194;5.532;2023-04-15T12:47:05;10.10;;;2.45;;
51556;SDS011;38766;53.194;5.532;2023-04-15T12:49:32;14.55;;;2.50;;
51556;SDS011;38766;53.194;5.532;2023-04-15T12:51:59;4.93;;;1.60;;
51556;SDS011;38766;53.194;5.532;2023-04-15T12:54:26;5.65;;;1.90;;
51556;SDS011;38766;53.194;5.532;2023-04-15T12:56:53;9.30;;;2.00;;
51556;SDS011;38766;53.194;5.532;2023-04-15T12:59:19;9.15;;;2.55;;
51556;SDS011;38766;53.194;5.532;2023-04-15T13:01:46;6.82;;;1.70;;
51556;SDS011;38766;53.194;5.532;2023-04-15T13:04:12;7.35;;;2.00;;
51556;SDS011;38766;53.194;5.532;2023-04-15T13:06:41;9.95;;;2.25;;
51556;SDS011;38766;53.194;5.532;2023-04-15T13:09:07;8.15;;;2.17;;
51556;SDS011;38766;53.194;5.532;2023-04-15T13:11:33;5.03;;;1.25;;
51556;SDS011;38766;53.194;5.532;2023-04-15T13:14:00;10.07;;;2.42;;
51556;SDS011;38766;53.194;5.532;2023-04-15T13:16:30;11.18;;;2.72;;
51556;SDS011;38766;53.194;5.532;2023-04-15T13:18:57;8.98;;;2.72;;
51556;SDS011;38766;53.194;5.532;2023-04-15T13:21:23;8.27;;;1.95;;
51556;SDS011;38766;53.194;5.532;2023-04-15T13:23:49;5.80;;;1.98;;
51556;SDS011;38766;53.194;5.532;2023-04-15T13:26:16;7.93;;;2.08;;
51556;SDS011;38766;53.194;5.532;2023-04-15T13:28:42;4.65;;;2.10;;
51556;SDS011;38766;53.194;5.532;2023-04-15T13:31:07;7.88;;;2.10;;
51556;SDS011;38766;53.194;5.532;2023-04-15T13:33:33;4.72;;;1.30;;
51556;SDS011;38766;53.194;5.532;2023-04-15T13:35:58;10.05;;;2.25;;
51556;SDS011;38766;53.194;5.532;2023-04-15T13:38:24;8.18;;;1.83;;
51556;SDS011;38766;53.194;5.532;2023-04-15T13:40:50;6.97;;;1.90;;
51556;SDS011;38766;53.194;5.532;2023-04-15T13:43:16;7.50;;;1.70;;
51556;SDS011;38766;53.194;5.532;2023-04-15T13:45:42;7.57;;;2.17;;
51556;SDS011;38766;53.194;5.532;2023-04-15T13:48:08;9.57;;;1.83;;
51556;SDS011;38766;53.194;5.532;2023-04-15T13:50:34;15.25;;;2.00;;
51556;SDS011;38766;53.194;5.532;2023-04-15T13:53:00;17.95;;;2.08;;
51556;SDS011;38766;53.194;5.532;2023-04-15T13:55:25;5.72;;;2.15;;
51556;SDS011;38766;53.194;5.532;2023-04-15T13:57:51;8.52;;;1.85;;
51556;SDS011;38766;53.194;5.532;2023-04-15T14:00:17;7.57;;;1.60;;
51556;SDS011;38766;53.194;5.532;2023-04-15T14:02:43;12.55;;;2.47;;
51556;SDS011;38766;53.194;5.532;2023-04-15T14:05:09;6.10;;;1.48;;
51556;SDS011;38766;53.194;5.532;2023-04-15T14:07:35;8.13;;;1.70;;
51556;SDS011;38766;53.194;5.532;2023-04-15T14:10:01;18.02;;;2.50;;
51556;SDS011;38766;53.194;5.532;2023-04-15T14:12:27;8.57;;;1.60;;
51556;SDS011;38766;53.194;5.532;2023-04-15T14:14:53;8.15;;;2.13;;
51556;SDS011;38766;53.194;5.532;2023-04-15T14:17:18;8.27;;;1.80;;
51556;SDS011;38766;53.194;5.532;2023-04-15T14:19:44;6.03;;;1.55;;
51556;SDS011;38766;53.194;5.532;2023-04-15T14:22:10;10.27;;;1.77;;
51556;SDS011;38766;53.194;5.532;2023-04-15T14:24:36;5.38;;;2.05;;
51556;SDS011;38766;53.194;5.532;2023-04-15T14:27:01;9.80;;;2.20;;
51556;SDS011;38766;53.194;5.532;2023-04-15T14:29:27;8.25;;;2.08;;
51556;SDS011;38766;53.194;5.532;2023-04-15T14:31:53;5.30;;;1.70;;
51556;SDS011;38766;53.194;5.532;2023-04-15T14:34:21;5.53;;;2.13;;
51556;SDS011;38766;53.194;5.532;2023-04-15T14:36:49;9.90;;;2.50;;
51556;SDS011;38766;53.194;5.532;2023-04-15T14:39:15;9.25;;;2.10;;
51556;SDS011;38766;53.194;5.532;2023-04-15T14:41:41;12.50;;;2.80;;
51556;SDS011;38766;53.194;5.532;2023-04-15T14:44:07;9.95;;;2.45;;
51556;SDS011;38766;53.194;5.532;2023-04-15T14:46:33;9.63;;;2.60;;
51556;SDS011;38766;53.194;5.532;2023-04-15T14:48:59;9.68;;;2.10;;
51556;SDS011;38766;53.194;5.532;2023-04-15T14:51:25;9.27;;;2.20;;
51556;SDS011;38766;53.194;5.532;2023-04-15T14:53:51;6.95;;;2.30;;
51556;SDS011;38766;53.194;5.532;2023-04-15T14:56:17;11.30;;;2.75;;
51556;SDS011;38766;53.194;5.532;2023-04-15T14:58:43;9.98;;;2.72;;